createdAt,value
2022-11-15T00:00:34.474Z,11.52
2022-11-15T00:01:34.499Z,11.54
2022-11-15T00:02:34.452Z,11.54
2022-11-15T00:03:34.695Z,11.54
2022-11-15T00:04:34.426Z,11.52
2022-11-15T00:05:34.427Z,11.54
2022-11-15T00:06:34.426Z,11.54
2022-11-15T00:07:54.644Z,11.52
2022-11-15T00:08:35.376Z,11.55
2022-11-15T00:09:34.376Z,11.55
2022-11-15T00:10:34.373Z,11.54
2022-11-15T00:11:34.378Z,11.55
2022-11-15T00:12:34.339Z,11.55
2022-11-15T00:13:34.827Z,11.54
2022-11-15T00:14:34.327Z,11.54
2022-11-15T00:15:34.317Z,11.52
2022-11-15T00:16:34.328Z,11.54
2022-11-15T00:17:34.298Z,11.54
2022-11-15T00:18:34.281Z,11.54
2022-11-15T00:19:34.270Z,11.52
2022-11-15T00:20:34.260Z,11.54
2022-11-15T00:21:34.272Z,11.54
2022-11-15T00:22:34.247Z,11.54
2022-11-15T00:23:34.462Z,11.54
2022-11-15T00:24:34.219Z,11.55
2022-11-15T00:25:34.233Z,11.55
2022-11-15T00:26:34.219Z,11.56
2022-11-15T00:27:34.192Z,11.56
2022-11-15T00:28:34.174Z,11.56
2022-11-15T00:29:34.164Z,11.55
2022-11-15T00:30:34.155Z,11.56
2022-11-15T00:31:34.165Z,11.55
2022-11-15T00:32:34.147Z,11.56
2022-11-15T00:33:34.541Z,11.55
2022-11-15T00:34:34.114Z,11.55
2022-11-15T00:35:34.108Z,11.56
2022-11-15T00:36:34.137Z,11.56
2022-11-15T00:37:34.088Z,11.54
2022-11-15T00:38:34.075Z,11.56
2022-11-15T00:39:34.065Z,11.56
2022-11-15T00:40:34.049Z,11.56
2022-11-15T00:41:34.057Z,11.55
2022-11-15T00:42:34.028Z,11.56
2022-11-15T00:43:34.186Z,11.58
2022-11-15T00:44:34.009Z,11.58
2022-11-15T00:45:34.023Z,11.58
2022-11-15T00:46:34.000Z,11.56
2022-11-15T00:47:33.979Z,11.59
2022-11-15T00:48:33.972Z,11.56
2022-11-15T00:49:33.959Z,11.56
2022-11-15T00:50:33.948Z,11.56
2022-11-15T00:51:33.961Z,11.56
2022-11-15T00:52:33.923Z,11.58
2022-11-15T00:53:34.348Z,11.56
2022-11-15T00:54:33.903Z,11.56
2022-11-15T00:55:33.899Z,11.55
2022-11-15T00:56:33.904Z,11.55
2022-11-15T00:57:33.874Z,11.54
2022-11-15T00:58:33.867Z,11.54
2022-11-15T00:59:33.855Z,11.54
2022-11-15T01:00:33.881Z,11.54
2022-11-15T01:01:33.851Z,11.54
2022-11-15T01:02:33.820Z,11.54
2022-11-15T01:03:33.937Z,11.54
2022-11-15T01:04:33.794Z,11.52
2022-11-15T01:05:33.795Z,11.54
2022-11-15T01:06:33.796Z,11.54
2022-11-15T01:07:33.852Z,11.54
2022-11-15T01:08:33.755Z,11.54
2022-11-15T01:09:33.746Z,11.54
2022-11-15T01:10:33.737Z,11.54
2022-11-15T01:11:33.770Z,11.55
2022-11-15T01:12:33.721Z,11.54
2022-11-15T01:13:33.904Z,11.54
2022-11-15T01:14:33.705Z,11.54
2022-11-15T01:15:33.687Z,11.55
2022-11-15T01:16:33.689Z,11.56
2022-11-15T01:17:33.669Z,11.54
2022-11-15T01:18:33.649Z,11.55
2022-11-15T01:19:33.641Z,11.55
2022-11-15T01:20:33.628Z,11.55
2022-11-15T01:21:33.640Z,11.54
2022-11-15T01:22:33.612Z,11.54
2022-11-15T01:23:33.900Z,11.54
2022-11-15T01:24:33.581Z,11.52
2022-11-15T01:25:33.585Z,11.54
2022-11-15T01:26:33.581Z,11.54
2022-11-15T01:27:33.564Z,11.54
2022-11-15T01:28:33.542Z,11.54
2022-11-15T01:29:33.540Z,11.55
2022-11-15T01:30:33.523Z,11.54
2022-11-15T01:31:33.544Z,11.55
2022-11-15T01:32:33.499Z,11.55
2022-11-15T01:33:33.797Z,11.54
2022-11-15T01:34:33.486Z,11.54
2022-11-15T01:35:33.483Z,11.54
2022-11-15T01:36:33.477Z,11.52
2022-11-15T01:37:33.453Z,11.54
2022-11-15T01:38:33.441Z,11.54
2022-11-15T01:39:33.427Z,11.54
2022-11-15T01:40:33.438Z,11.54
2022-11-15T01:41:33.446Z,11.54
2022-11-15T01:42:33.396Z,11.54
2022-11-15T01:43:33.665Z,11.54
2022-11-15T01:44:33.369Z,11.52
2022-11-15T01:45:33.380Z,11.52
2022-11-15T01:46:33.368Z,11.52
2022-11-15T01:47:33.341Z,11.52
2022-11-15T01:48:33.329Z,11.52
2022-11-15T01:49:33.333Z,11.51
2022-11-15T01:50:33.330Z,11.52
2022-11-15T01:51:33.319Z,11.51
2022-11-15T01:52:33.290Z,11.52
2022-11-15T01:53:33.502Z,11.51
2022-11-15T01:54:33.268Z,11.52
2022-11-15T01:55:33.261Z,11.51
2022-11-15T01:56:33.261Z,11.51
2022-11-15T01:57:33.243Z,11.51
2022-11-15T01:58:33.246Z,11.52
2022-11-15T01:59:33.224Z,11.51
2022-11-15T02:00:33.271Z,11.49
2022-11-15T02:01:33.220Z,11.49
2022-11-15T02:02:33.185Z,11.48
2022-11-15T02:03:33.337Z,11.49
2022-11-15T02:04:33.154Z,11.46
2022-11-15T02:05:33.155Z,11.48
2022-11-15T02:06:33.154Z,11.45
2022-11-15T02:07:33.164Z,11.43
2022-11-15T02:08:33.127Z,11.41
2022-11-15T02:09:33.105Z,11.41
2022-11-15T02:10:33.096Z,11.40
2022-11-15T02:11:33.096Z,11.40
2022-11-15T02:12:33.085Z,11.38
2022-11-15T02:13:33.417Z,11.37
2022-11-15T02:14:33.058Z,11.36
2022-11-15T02:15:33.037Z,11.34
2022-11-15T02:16:33.049Z,11.33
2022-11-15T02:17:33.019Z,11.28
2022-11-15T02:18:33.022Z,11.27
2022-11-15T02:19:33.001Z,11.25
2022-11-15T02:20:32.995Z,11.23
2022-11-15T02:21:32.998Z,11.22
2022-11-15T02:22:32.970Z,11.19
2022-11-15T02:23:33.299Z,11.15
2022-11-15T02:24:32.953Z,11.15
2022-11-15T02:25:32.935Z,11.12
2022-11-15T02:26:32.951Z,11.11
2022-11-15T02:27:32.921Z,11.05
2022-11-15T02:28:32.912Z,11.05
2022-11-15T02:29:32.892Z,11.03
2022-11-15T02:30:32.891Z,11.01
2022-11-15T02:31:32.884Z,11.00
2022-11-15T02:32:32.872Z,10.98
2022-11-15T02:33:33.143Z,10.97
2022-11-15T02:34:32.844Z,10.94
2022-11-15T02:35:32.854Z,10.93
2022-11-15T02:36:32.846Z,10.91
2022-11-15T02:37:32.817Z,10.90
2022-11-15T02:38:32.811Z,10.90
2022-11-15T02:39:32.785Z,10.87
2022-11-15T02:40:32.786Z,10.86
2022-11-15T02:41:32.787Z,10.86
2022-11-15T02:42:32.757Z,10.86
2022-11-15T02:43:33.050Z,10.85
2022-11-15T02:44:32.745Z,10.85
2022-11-15T02:45:32.728Z,10.85
2022-11-15T02:46:32.735Z,10.85
2022-11-15T02:47:32.706Z,10.83
2022-11-15T02:48:32.701Z,10.85
2022-11-15T02:49:32.680Z,10.83
2022-11-15T02:50:32.671Z,10.85
2022-11-15T02:51:32.684Z,10.83
2022-11-15T02:52:32.669Z,10.83
2022-11-15T02:53:33.034Z,10.83
2022-11-15T02:54:32.640Z,10.83
2022-11-15T02:55:32.642Z,10.83
2022-11-15T02:56:32.663Z,10.85
2022-11-15T02:57:32.612Z,10.83
2022-11-15T02:58:32.602Z,10.83
2022-11-15T02:59:32.582Z,10.83
2022-11-15T03:00:32.605Z,10.83
2022-11-15T03:01:32.573Z,10.85
2022-11-15T03:02:32.552Z,10.85
2022-11-15T03:03:32.832Z,10.85
2022-11-15T03:04:32.535Z,10.86
2022-11-15T03:05:32.514Z,10.87
2022-11-15T03:06:32.526Z,10.86
2022-11-15T03:07:32.555Z,10.90
2022-11-15T03:08:32.493Z,10.90
2022-11-15T03:09:32.475Z,10.87
2022-11-15T03:10:32.467Z,10.90
2022-11-15T03:11:32.475Z,10.91
2022-11-15T03:12:32.446Z,10.93
2022-11-15T03:13:32.599Z,10.94
2022-11-15T03:14:32.429Z,10.95
2022-11-15T03:15:32.410Z,10.95
2022-11-15T03:16:32.425Z,10.97
2022-11-15T03:17:32.390Z,10.98
2022-11-15T03:18:32.388Z,10.98
2022-11-15T03:19:32.375Z,11.00
2022-11-15T03:20:32.369Z,11.03
2022-11-15T03:21:32.368Z,11.03
2022-11-15T03:22:32.339Z,11.01
2022-11-15T03:23:32.756Z,11.03
2022-11-15T03:24:32.330Z,11.04
2022-11-15T03:25:32.312Z,11.05
2022-11-15T03:26:32.320Z,11.04
2022-11-15T03:27:32.282Z,11.04
2022-11-15T03:28:32.283Z,11.05
2022-11-15T03:29:32.263Z,11.08
2022-11-15T03:30:32.272Z,11.08
2022-11-15T03:31:32.261Z,11.08
2022-11-15T03:32:32.246Z,11.08
2022-11-15T03:33:32.546Z,11.08
2022-11-15T03:34:32.212Z,11.08
2022-11-15T03:35:32.237Z,11.09
2022-11-15T03:36:32.214Z,11.09
2022-11-15T03:37:32.185Z,11.09
2022-11-15T03:38:32.224Z,11.11
2022-11-15T03:39:32.164Z,11.11
2022-11-15T03:40:32.156Z,11.11
2022-11-15T03:41:32.156Z,11.11
2022-11-15T03:42:32.136Z,11.09
2022-11-15T03:43:32.401Z,11.12
2022-11-15T03:44:32.128Z,11.12
2022-11-15T03:45:32.099Z,11.12
2022-11-15T03:46:32.107Z,11.11
2022-11-15T03:47:32.078Z,11.12
2022-11-15T03:48:32.090Z,11.11
2022-11-15T03:49:32.057Z,11.11
2022-11-15T03:50:32.108Z,11.12
2022-11-15T03:51:32.050Z,11.11
2022-11-15T03:52:32.030Z,11.12
2022-11-15T03:53:32.189Z,11.11
2022-11-15T03:54:32.011Z,11.11
2022-11-15T03:55:31.992Z,11.12
2022-11-15T03:56:32.001Z,11.12
2022-11-15T03:57:31.981Z,11.12
2022-11-15T03:58:31.970Z,11.12
2022-11-15T03:59:31.950Z,11.11
2022-11-15T04:00:31.943Z,11.11
2022-11-15T04:01:32.011Z,11.11
2022-11-15T04:02:31.924Z,11.12
2022-11-15T04:03:32.175Z,11.12
2022-11-15T04:04:31.901Z,11.09
2022-11-15T04:05:31.970Z,11.09
2022-11-15T04:06:31.896Z,11.11
2022-11-15T04:07:31.919Z,11.08
2022-11-15T04:08:31.862Z,11.08
2022-11-15T04:09:31.846Z,11.05
2022-11-15T04:10:31.839Z,11.05
2022-11-15T04:11:31.838Z,11.03
2022-11-15T04:12:32.029Z,11.03
2022-11-15T04:13:32.118Z,11.01
2022-11-15T04:14:31.796Z,11.00
2022-11-15T04:15:31.778Z,11.00
2022-11-15T04:16:31.799Z,10.98
2022-11-15T04:17:31.759Z,10.97
2022-11-15T04:18:31.755Z,10.98
2022-11-15T04:19:31.738Z,10.94
2022-11-15T04:20:31.729Z,10.95
2022-11-15T04:21:31.730Z,10.94
2022-11-15T04:22:31.709Z,10.95
2022-11-15T04:23:32.066Z,10.93
2022-11-15T04:24:31.688Z,10.94
2022-11-15T04:25:32.576Z,10.94
2022-11-15T04:26:31.700Z,10.93
2022-11-15T04:27:31.653Z,10.94
2022-11-15T04:28:31.666Z,10.94
2022-11-15T04:29:31.640Z,10.93
2022-11-15T04:30:31.622Z,10.93
2022-11-15T04:31:31.610Z,10.93
2022-11-15T04:32:31.622Z,10.91
2022-11-15T04:33:31.807Z,10.91
2022-11-15T04:34:31.590Z,10.91
2022-11-15T04:35:31.570Z,10.90
2022-11-15T04:36:31.641Z,10.90
2022-11-15T04:37:31.565Z,10.87
2022-11-15T04:38:31.541Z,10.87
2022-11-15T04:39:31.525Z,10.86
2022-11-15T04:40:31.515Z,10.87
2022-11-15T04:41:31.504Z,10.86
2022-11-15T04:42:31.515Z,10.85
2022-11-15T04:43:31.939Z,10.83
2022-11-15T04:44:31.476Z,10.85
2022-11-15T04:45:31.465Z,10.83
2022-11-15T04:46:31.456Z,10.82
2022-11-15T04:47:31.449Z,10.80
2022-11-15T04:48:31.452Z,10.82
2022-11-15T04:49:31.418Z,10.80
2022-11-15T04:50:31.418Z,10.80
2022-11-15T04:51:31.400Z,10.82
2022-11-15T04:52:31.420Z,10.80
2022-11-15T04:53:31.652Z,10.80
2022-11-15T04:54:31.372Z,10.80
2022-11-15T04:55:31.352Z,10.80
2022-11-15T04:56:31.379Z,10.79
2022-11-15T04:57:31.350Z,10.79
2022-11-15T04:58:31.328Z,10.80
2022-11-15T04:59:31.311Z,10.79
2022-11-15T05:00:31.312Z,10.82
2022-11-15T05:01:31.391Z,10.80
2022-11-15T05:02:31.307Z,10.79
2022-11-15T05:03:31.579Z,10.79
2022-11-15T05:04:31.261Z,10.79
2022-11-15T05:05:31.252Z,10.78
2022-11-15T05:06:31.244Z,10.80
2022-11-15T05:07:31.295Z,10.80
2022-11-15T05:08:31.224Z,10.80
2022-11-15T05:09:31.214Z,10.79
2022-11-15T05:10:31.203Z,10.80
2022-11-15T05:11:31.185Z,10.79
2022-11-15T05:12:31.203Z,10.79
2022-11-15T05:13:31.478Z,10.80
2022-11-15T05:14:31.163Z,10.80
2022-11-15T05:15:31.146Z,10.80
2022-11-15T05:16:31.176Z,10.80
2022-11-15T05:17:31.128Z,10.80
2022-11-15T05:18:31.124Z,10.82
2022-11-15T05:19:31.107Z,10.80
2022-11-15T05:20:31.108Z,10.80
2022-11-15T05:21:31.099Z,10.80
2022-11-15T05:22:31.094Z,10.80
2022-11-15T05:23:31.416Z,10.80
2022-11-15T05:24:31.061Z,10.82
2022-11-15T05:25:31.039Z,10.82
2022-11-15T05:26:31.057Z,10.80
2022-11-15T05:27:31.020Z,10.82
2022-11-15T05:28:31.019Z,10.82
2022-11-15T05:29:31.010Z,10.82
2022-11-15T05:30:31.004Z,10.82
2022-11-15T05:31:30.998Z,10.85
2022-11-15T05:32:30.973Z,10.83
2022-11-15T05:33:31.187Z,10.82
2022-11-15T05:34:30.955Z,10.83
2022-11-15T05:35:30.941Z,10.83
2022-11-15T05:36:30.954Z,10.85
2022-11-15T05:37:30.926Z,10.83
2022-11-15T05:38:30.922Z,10.82
2022-11-15T05:39:30.894Z,10.85
2022-11-15T05:40:30.884Z,10.86
2022-11-15T05:41:30.893Z,10.85
2022-11-15T05:42:30.935Z,10.83
2022-11-15T05:43:31.186Z,10.83
2022-11-15T05:44:30.856Z,10.85
2022-11-15T05:45:30.835Z,10.86
2022-11-15T05:46:30.866Z,10.85
2022-11-15T05:47:30.828Z,10.85
2022-11-15T05:48:30.804Z,10.85
2022-11-15T05:49:30.795Z,10.85
2022-11-15T05:50:30.786Z,10.85
2022-11-15T05:51:30.787Z,10.85
2022-11-15T05:52:30.763Z,10.86
2022-11-15T05:53:30.943Z,10.85
2022-11-15T05:54:30.749Z,10.87
2022-11-15T05:55:30.729Z,10.86
2022-11-15T05:56:30.740Z,10.86
2022-11-15T05:57:30.710Z,10.90
2022-11-15T05:58:30.719Z,10.90
2022-11-15T05:59:30.689Z,10.90
2022-11-15T06:00:30.689Z,10.90
2022-11-15T06:01:30.675Z,10.91
2022-11-15T06:02:30.729Z,10.90
2022-11-15T06:03:30.926Z,10.91
2022-11-15T06:04:30.643Z,10.90
2022-11-15T06:05:30.634Z,10.91
2022-11-15T06:06:30.622Z,10.94
2022-11-15T06:07:30.902Z,10.93
2022-11-15T06:08:30.594Z,10.93
2022-11-15T06:09:30.582Z,10.94
2022-11-15T06:10:30.575Z,10.94
2022-11-15T06:11:30.562Z,10.94
2022-11-15T06:12:30.574Z,10.94
2022-11-15T06:13:30.992Z,10.94
2022-11-15T06:14:30.487Z,10.95
2022-11-15T06:15:30.523Z,10.94
2022-11-15T06:16:30.516Z,10.94
2022-11-15T06:17:30.517Z,10.95
2022-11-15T06:18:30.496Z,10.95
2022-11-15T06:19:30.502Z,10.94
2022-11-15T06:20:30.442Z,10.97
2022-11-15T06:21:30.408Z,10.97
2022-11-15T06:22:30.417Z,10.95
2022-11-15T06:23:30.695Z,10.95
2022-11-15T06:24:30.386Z,10.95
2022-11-15T06:25:30.366Z,10.95
2022-11-15T06:26:30.350Z,10.94
2022-11-15T06:27:30.380Z,10.95
2022-11-15T06:28:30.338Z,10.94
2022-11-15T06:29:30.352Z,10.95
2022-11-15T06:30:30.314Z,10.95
2022-11-15T06:31:30.310Z,10.94
2022-11-15T06:32:30.308Z,10.94
2022-11-15T06:33:30.649Z,10.93
2022-11-15T06:34:30.262Z,10.93
2022-11-15T06:35:30.262Z,10.93
2022-11-15T06:36:30.271Z,10.91
2022-11-15T06:37:30.243Z,10.91
2022-11-15T06:38:30.229Z,10.93
2022-11-15T06:39:30.225Z,10.90
2022-11-15T06:40:30.213Z,10.90
2022-11-15T06:41:30.207Z,10.87
2022-11-15T06:42:30.213Z,10.87
2022-11-15T06:43:30.390Z,10.86
2022-11-15T06:44:30.163Z,10.83
2022-11-15T06:45:30.156Z,10.83
2022-11-15T06:46:30.138Z,10.82
2022-11-15T06:47:30.157Z,10.82
2022-11-15T06:48:30.124Z,10.80
2022-11-15T06:49:30.124Z,10.79
2022-11-15T06:50:30.099Z,10.78
2022-11-15T06:51:30.096Z,10.76
2022-11-15T06:52:30.099Z,10.75
2022-11-15T06:53:30.441Z,10.73
2022-11-15T06:54:30.064Z,10.73
2022-11-15T06:55:30.056Z,10.73
2022-11-15T06:56:30.054Z,10.72
2022-11-15T06:57:30.060Z,10.70
2022-11-15T06:58:30.027Z,10.67
2022-11-15T06:59:30.025Z,10.65
2022-11-15T07:00:30.034Z,10.65
2022-11-15T07:01:30.025Z,10.64
2022-11-15T07:02:30.002Z,10.62
2022-11-15T07:03:30.434Z,10.61
2022-11-15T07:04:29.968Z,10.60
2022-11-15T07:05:29.952Z,10.58
2022-11-15T07:06:29.945Z,10.58
2022-11-15T07:07:29.992Z,10.55
2022-11-15T07:08:29.915Z,10.55
2022-11-15T07:09:29.911Z,10.52
2022-11-15T07:10:29.895Z,10.54
2022-11-15T07:11:29.885Z,10.49
2022-11-15T07:12:29.893Z,10.48
2022-11-15T07:13:30.318Z,10.48
2022-11-15T07:14:29.854Z,10.48
2022-11-15T07:15:29.845Z,10.46
2022-11-15T07:16:29.837Z,10.45
2022-11-15T07:17:29.846Z,10.43
2022-11-15T07:18:29.808Z,10.45
2022-11-15T07:19:29.810Z,10.43
2022-11-15T07:20:29.788Z,10.45
2022-11-15T07:21:29.798Z,10.42
2022-11-15T07:22:29.789Z,10.42
2022-11-15T07:23:30.167Z,10.43
2022-11-15T07:24:29.749Z,10.42
2022-11-15T07:25:29.768Z,10.42
2022-11-15T07:26:29.728Z,10.42
2022-11-15T07:27:29.731Z,10.42
2022-11-15T07:28:29.745Z,10.42
2022-11-15T07:29:29.721Z,10.42
2022-11-15T07:30:29.693Z,10.42
2022-11-15T07:31:29.685Z,10.42
2022-11-15T07:32:29.678Z,10.42
2022-11-15T07:33:30.050Z,10.42
2022-11-15T07:34:29.655Z,10.43
2022-11-15T07:35:29.644Z,10.42
2022-11-15T07:36:29.623Z,10.42
2022-11-15T07:37:29.651Z,10.43
2022-11-15T07:38:29.609Z,10.43
2022-11-15T07:39:29.604Z,10.45
2022-11-15T07:40:29.593Z,10.45
2022-11-15T07:41:29.574Z,10.46
2022-11-15T07:42:29.573Z,10.45
2022-11-15T07:43:29.853Z,10.46
2022-11-15T07:44:29.534Z,10.45
2022-11-15T07:45:29.529Z,10.46
2022-11-15T07:46:29.528Z,10.46
2022-11-15T07:47:29.526Z,10.45
2022-11-15T07:48:42.649Z,10.45
2022-11-15T07:49:30.507Z,10.45
2022-11-15T07:50:29.469Z,10.46
2022-11-15T07:51:29.467Z,10.48
2022-11-15T07:52:29.465Z,10.48
2022-11-15T07:53:29.842Z,10.49
2022-11-15T07:54:29.450Z,10.52
2022-11-15T07:55:29.428Z,10.49
2022-11-15T07:56:29.410Z,10.49
2022-11-15T07:57:29.411Z,10.54
2022-11-15T07:58:29.392Z,10.54
2022-11-15T07:59:29.402Z,10.55
2022-11-15T08:00:29.386Z,10.57
2022-11-15T08:01:29.525Z,10.57
2022-11-15T08:02:30.736Z,10.58
2022-11-15T08:03:29.657Z,10.58
2022-11-15T08:04:29.359Z,10.61
2022-11-15T08:05:29.328Z,10.62
2022-11-15T08:06:29.303Z,10.64
2022-11-15T08:07:29.383Z,10.64
2022-11-15T08:08:29.282Z,10.65
2022-11-15T08:09:29.294Z,10.67
2022-11-15T08:10:29.265Z,10.67
2022-11-15T08:11:29.254Z,10.68
2022-11-15T08:12:29.280Z,10.70
2022-11-15T08:13:29.564Z,10.68
2022-11-15T08:14:29.269Z,10.72
2022-11-15T08:15:29.213Z,10.73
2022-11-15T08:16:29.206Z,10.73
2022-11-15T08:17:29.197Z,10.76
2022-11-15T08:18:29.185Z,10.78
2022-11-15T08:19:29.196Z,10.80
2022-11-15T08:20:29.170Z,10.82
2022-11-15T08:21:29.158Z,10.85
2022-11-15T08:22:29.149Z,10.86
2022-11-15T08:23:29.306Z,10.90
2022-11-15T08:24:29.140Z,10.93
2022-11-15T08:25:29.119Z,10.94
2022-11-15T08:26:29.099Z,10.95
2022-11-15T08:27:29.233Z,10.98
2022-11-15T08:28:29.079Z,11.00
2022-11-15T08:29:29.089Z,11.03
2022-11-15T08:30:29.053Z,11.04
2022-11-15T08:31:29.054Z,11.05
2022-11-15T08:32:29.038Z,11.05
2022-11-15T08:33:29.349Z,11.08
2022-11-15T08:34:29.032Z,11.09
2022-11-15T08:35:29.545Z,11.11
2022-11-15T08:36:34.822Z,11.11
2022-11-15T08:37:29.984Z,11.13
2022-11-15T08:38:29.133Z,11.13
2022-11-15T08:39:28.988Z,11.15
2022-11-15T08:40:28.968Z,11.18
2022-11-15T08:41:28.946Z,11.19
2022-11-15T08:42:28.934Z,11.22
2022-11-15T08:43:29.104Z,11.25
2022-11-15T08:44:28.927Z,11.27
2022-11-15T08:45:28.904Z,11.27
2022-11-15T08:46:28.916Z,11.30
2022-11-15T08:47:28.884Z,11.31
2022-11-15T08:48:29.060Z,11.37
2022-11-15T08:49:28.876Z,11.40
2022-11-15T08:50:28.856Z,11.45
2022-11-15T08:51:28.878Z,11.48
2022-11-15T08:52:28.829Z,11.52
2022-11-15T08:53:28.819Z,11.54
2022-11-15T08:54:28.819Z,11.56
2022-11-15T08:55:28.822Z,11.59
2022-11-15T08:56:28.800Z,11.61
2022-11-15T08:57:28.790Z,11.62
2022-11-15T08:58:28.838Z,11.64
2022-11-15T08:59:28.779Z,11.64
2022-11-15T09:00:28.745Z,11.66
2022-11-15T09:01:28.784Z,11.66
2022-11-15T09:02:28.721Z,11.66
2022-11-15T09:03:28.734Z,11.66
2022-11-15T09:04:28.705Z,11.66
2022-11-15T09:05:28.712Z,11.67
2022-11-15T09:06:28.679Z,11.69
2022-11-15T09:07:29.213Z,11.69
2022-11-15T09:09:29.661Z,11.71
2022-11-15T09:10:28.652Z,11.73
2022-11-15T09:11:28.634Z,11.73
2022-11-15T09:12:28.627Z,11.73
2022-11-15T09:13:28.616Z,11.76
2022-11-15T09:14:28.595Z,11.76
2022-11-15T09:15:28.607Z,11.76
2022-11-15T09:16:28.568Z,11.79
2022-11-15T09:17:28.567Z,11.79
2022-11-15T09:18:28.589Z,11.80
2022-11-15T09:19:28.555Z,11.82
2022-11-15T09:20:28.554Z,11.84
2022-11-15T09:21:28.528Z,11.85
2022-11-15T09:22:28.519Z,11.88
2022-11-15T09:23:28.498Z,11.88
2022-11-15T09:24:28.501Z,11.89
2022-11-15T09:25:28.517Z,11.89
2022-11-15T09:26:28.479Z,11.93
2022-11-15T09:27:28.480Z,11.93
2022-11-15T09:28:28.451Z,11.93
2022-11-15T09:29:28.442Z,11.93
2022-11-15T09:30:28.460Z,11.93
2022-11-15T09:31:28.412Z,11.95
2022-11-15T09:32:28.419Z,11.95
2022-11-15T09:33:28.458Z,11.96
2022-11-15T09:34:28.380Z,11.97
2022-11-15T09:35:28.393Z,11.97
2022-11-15T09:36:28.380Z,12.03
2022-11-15T09:37:28.352Z,12.04
2022-11-15T09:38:28.345Z,12.05
2022-11-15T09:39:28.346Z,12.10
2022-11-15T09:40:28.382Z,12.14
2022-11-15T09:41:28.314Z,12.18
2022-11-15T09:42:28.293Z,12.26
2022-11-15T09:43:28.287Z,12.32
2022-11-15T09:44:28.274Z,12.38
2022-11-15T09:45:28.286Z,12.44
2022-11-15T09:46:28.297Z,12.48
2022-11-15T09:47:28.264Z,12.51
2022-11-15T09:48:28.281Z,12.55
2022-11-15T09:49:28.219Z,12.59
2022-11-15T09:50:28.234Z,12.63
2022-11-15T09:51:28.206Z,12.66
2022-11-15T09:52:28.179Z,12.69
2022-11-15T09:54:01.041Z,12.71
2022-11-15T09:55:29.180Z,12.76
2022-11-15T09:56:28.160Z,12.77
2022-11-15T09:57:28.142Z,12.81
2022-11-15T09:58:28.140Z,12.84
2022-11-15T09:59:28.110Z,12.88
2022-11-15T10:01:29.164Z,12.90
2022-11-15T10:02:28.073Z,12.90
2022-11-15T10:03:28.083Z,12.91
2022-11-15T10:04:28.084Z,12.91
2022-11-15T10:05:28.083Z,12.90
2022-11-15T10:06:28.033Z,12.88
2022-11-15T10:07:28.131Z,12.91
2022-11-15T10:08:28.043Z,12.88
2022-11-15T10:09:28.004Z,12.87
2022-11-15T10:10:28.054Z,12.88
2022-11-15T10:11:37.306Z,12.87
2022-11-15T10:12:28.975Z,12.88
2022-11-15T10:13:27.998Z,12.88
2022-11-15T10:14:27.966Z,12.91
2022-11-15T10:15:27.966Z,12.93
2022-11-15T10:16:27.929Z,12.99
2022-11-15T10:17:27.935Z,12.99
2022-11-15T10:18:27.907Z,12.99
2022-11-15T10:19:27.899Z,13.01
2022-11-15T10:20:27.917Z,13.05
2022-11-15T10:21:27.878Z,13.05
2022-11-15T10:22:27.870Z,13.14
2022-11-15T10:23:27.859Z,13.26
2022-11-15T10:24:27.840Z,13.39
2022-11-15T10:25:27.849Z,13.51
2022-11-15T10:26:27.829Z,13.51
2022-11-15T10:27:27.821Z,13.53
2022-11-15T10:28:27.813Z,13.51
2022-11-15T10:29:27.803Z,13.47
2022-11-15T10:30:27.800Z,13.43
2022-11-15T10:31:27.789Z,13.42
2022-11-15T10:32:27.767Z,13.45
2022-11-15T10:33:27.751Z,13.40
2022-11-15T10:34:27.753Z,13.40
2022-11-15T10:35:27.744Z,13.40
2022-11-15T10:36:27.718Z,13.42
2022-11-15T10:37:27.714Z,13.45
2022-11-15T10:38:27.694Z,13.47
2022-11-15T10:39:27.694Z,13.45
2022-11-15T10:40:27.724Z,13.46
2022-11-15T10:41:27.664Z,13.43
2022-11-15T10:42:27.656Z,13.42
2022-11-15T10:43:27.643Z,13.40
2022-11-15T10:44:27.640Z,13.38
2022-11-15T10:45:27.637Z,13.32
2022-11-15T10:47:28.606Z,13.30
2022-11-15T10:48:27.598Z,13.30
2022-11-15T10:49:27.599Z,13.26
2022-11-15T10:50:27.598Z,13.23
2022-11-15T10:51:27.556Z,13.21
2022-11-15T10:52:27.557Z,13.21
2022-11-15T10:53:27.534Z,13.20
2022-11-15T10:54:27.531Z,13.19
2022-11-15T10:55:27.542Z,13.19
2022-11-15T10:56:27.512Z,13.19
2022-11-15T10:57:27.498Z,13.19
2022-11-15T10:58:27.486Z,13.19
2022-11-15T10:59:27.472Z,13.19
2022-11-15T11:00:27.484Z,13.19
2022-11-15T11:01:27.542Z,13.19
2022-11-15T11:02:27.445Z,13.19
2022-11-15T11:03:27.423Z,13.19
2022-11-15T11:04:27.427Z,13.19
2022-11-15T11:05:27.430Z,13.17
2022-11-15T11:06:27.404Z,13.17
2022-11-15T11:07:27.423Z,13.19
2022-11-15T11:08:27.395Z,13.17
2022-11-15T11:09:27.364Z,13.16
2022-11-15T11:11:28.346Z,13.17
2022-11-15T11:12:27.338Z,13.17
2022-11-15T11:13:27.317Z,13.16
2022-11-15T11:14:27.316Z,13.17
2022-11-15T11:15:27.317Z,13.19
2022-11-15T11:16:27.303Z,13.20
2022-11-15T11:17:27.289Z,13.21
2022-11-15T11:18:27.276Z,13.23
2022-11-15T11:19:27.258Z,13.27
2022-11-15T11:20:27.269Z,13.32
2022-11-15T11:21:32.947Z,13.32
2022-11-15T11:22:28.240Z,13.32
2022-11-15T11:23:27.219Z,13.32
2022-11-15T11:24:27.209Z,13.30
2022-11-15T11:25:27.222Z,13.32
2022-11-15T11:26:27.200Z,13.35
2022-11-15T11:27:27.172Z,13.36
2022-11-15T11:28:27.168Z,13.35
2022-11-15T11:29:27.152Z,13.35
2022-11-15T11:30:27.172Z,13.35
2022-11-15T11:31:27.143Z,13.36
2022-11-15T11:32:27.125Z,13.38
2022-11-15T11:33:27.111Z,13.38
2022-11-15T11:34:27.109Z,13.39
2022-11-15T11:35:27.105Z,13.42
2022-11-15T11:36:27.083Z,13.43
2022-11-15T11:37:27.067Z,13.43
2022-11-15T11:38:27.063Z,13.43
2022-11-15T11:39:27.054Z,13.43
2022-11-15T11:40:27.083Z,13.45
2022-11-15T11:41:27.025Z,13.42
2022-11-15T11:42:27.017Z,13.45
2022-11-15T11:43:27.000Z,13.43
2022-11-15T11:44:27.007Z,13.43
2022-11-15T11:45:26.997Z,13.43
2022-11-15T11:46:26.976Z,13.43
2022-11-15T11:47:26.967Z,13.45
2022-11-15T11:48:26.958Z,13.47
2022-11-15T11:49:26.939Z,13.47
2022-11-15T11:50:26.949Z,13.47
2022-11-15T11:51:26.919Z,13.47
2022-11-15T11:52:26.910Z,13.51
2022-11-15T11:53:26.904Z,13.51
2022-11-15T11:54:26.912Z,13.55
2022-11-15T11:55:26.902Z,13.55
2022-11-15T11:56:26.869Z,13.57
2022-11-15T11:57:26.866Z,13.57
2022-11-15T11:58:26.883Z,13.58
2022-11-15T11:59:26.832Z,13.55
2022-11-15T12:00:26.849Z,13.54
2022-11-15T12:01:26.811Z,13.53
2022-11-15T12:02:26.903Z,13.51
2022-11-15T12:03:26.794Z,13.51
2022-11-15T12:04:26.786Z,13.49
2022-11-15T12:05:26.795Z,13.47
2022-11-15T12:06:26.766Z,13.49
2022-11-15T12:07:26.892Z,13.49
2022-11-15T12:08:26.743Z,13.49
2022-11-15T12:09:26.726Z,13.51
2022-11-15T12:10:26.716Z,13.53
2022-11-15T12:11:26.727Z,13.51
2022-11-15T12:12:26.719Z,13.53
2022-11-15T12:13:26.687Z,13.53
2022-11-15T12:14:26.678Z,13.54
2022-11-15T12:15:26.675Z,13.57
2022-11-15T12:16:26.677Z,13.58
2022-11-15T12:17:26.651Z,13.60
2022-11-15T12:18:26.637Z,13.63
2022-11-15T12:19:26.626Z,13.63
2022-11-15T12:20:26.610Z,13.63
2022-11-15T12:21:28.780Z,13.67
2022-11-15T12:22:26.592Z,13.67
2022-11-15T12:23:26.580Z,13.68
2022-11-15T12:24:26.576Z,13.72
2022-11-15T12:25:26.560Z,13.72
2022-11-15T12:26:26.822Z,13.75
2022-11-15T12:27:27.016Z,13.73
2022-11-15T12:28:26.533Z,13.78
2022-11-15T12:29:26.516Z,13.76
2022-11-15T12:30:26.514Z,13.78
2022-11-15T12:31:26.514Z,13.78
2022-11-15T12:32:26.485Z,13.79
2022-11-15T12:33:26.474Z,13.79
2022-11-15T12:34:26.473Z,13.79
2022-11-15T12:35:26.467Z,13.79
2022-11-15T12:36:26.462Z,13.78
2022-11-15T12:37:26.436Z,13.76
2022-11-15T12:38:26.425Z,13.76
2022-11-15T12:39:26.435Z,13.76
2022-11-15T12:40:26.417Z,13.78
2022-11-15T12:41:26.407Z,13.78
2022-11-15T12:42:26.434Z,13.79
2022-11-15T12:43:26.381Z,13.78
2022-11-15T12:44:26.359Z,13.79
2022-11-15T12:45:26.349Z,13.83
2022-11-15T12:46:26.353Z,13.83
2022-11-15T12:47:26.322Z,13.83
2022-11-15T12:48:26.319Z,13.85
2022-11-15T12:49:26.300Z,13.85
2022-11-15T12:50:26.300Z,13.83
2022-11-15T12:51:26.301Z,13.85
2022-11-15T12:52:26.274Z,13.85
2022-11-15T12:53:26.262Z,13.83
2022-11-15T12:54:26.252Z,13.85
2022-11-15T12:55:26.234Z,13.82
2022-11-15T12:56:26.252Z,13.82
2022-11-15T12:57:26.215Z,13.80